createdAt,value
2017-07-17T00:01:28.183Z,69.41
2017-07-17T00:03:59.940Z,69.50
2017-07-17T00:06:31.730Z,69.54
2017-07-17T00:09:03.425Z,69.34
2017-07-17T00:11:35.221Z,69.27
2017-07-17T00:14:06.577Z,69.01
2017-07-17T00:16:38.709Z,69.74
2017-07-17T00:19:11.209Z,69.72
2017-07-17T00:21:49.156Z,69.87
2017-07-17T00:24:27.531Z,69.92
2017-07-17T00:26:59.108Z,69.93
2017-07-17T00:29:31.108Z,69.69
2017-07-17T00:32:02.761Z,70.03
2017-07-17T00:34:35.281Z,70.14
2017-07-17T00:37:10.269Z,69.48
2017-07-17T00:39:42.853Z,69.45
2017-07-17T00:42:15.206Z,70.05
2017-07-17T00:44:49.440Z,69.62
2017-07-17T00:47:25.054Z,70.34
2017-07-17T00:49:57.652Z,70.43
2017-07-17T00:52:29.225Z,71.00
2017-07-17T00:55:01.092Z,70.55
2017-07-17T00:57:32.438Z,70.07
2017-07-17T01:00:04.183Z,70.31
2017-07-17T01:02:36.353Z,70.08
2017-07-17T01:05:08.127Z,70.22
2017-07-17T01:07:39.799Z,70.11
2017-07-17T01:10:11.606Z,69.61
2017-07-17T01:12:43.275Z,69.42
2017-07-17T01:15:15.035Z,69.15
2017-07-17T01:17:49.577Z,69.39
2017-07-17T01:20:24.909Z,68.93
2017-07-17T01:22:57.048Z,68.85
2017-07-17T01:25:28.818Z,71.04
2017-07-17T01:28:00.297Z,69.70
2017-07-17T01:30:31.682Z,72.40
2017-07-17T01:33:03.431Z,73.81
2017-07-17T01:35:34.842Z,72.46
2017-07-17T01:38:08.521Z,75.27
2017-07-17T01:40:39.715Z,72.21
2017-07-17T01:43:11.409Z,71.31
2017-07-17T01:45:43.391Z,70.18
2017-07-17T01:48:14.895Z,69.78
2017-07-17T01:50:46.543Z,69.93
2017-07-17T01:53:20.027Z,69.54
2017-07-17T01:55:51.959Z,70.45
2017-07-17T01:58:25.732Z,70.68
2017-07-17T02:00:57.306Z,69.57
2017-07-17T02:03:28.827Z,69.71
2017-07-17T02:06:00.864Z,68.90
2017-07-17T02:08:32.457Z,71.04
2017-07-17T02:11:03.772Z,70.98
2017-07-17T02:13:36.659Z,69.89
2017-07-17T02:16:09.688Z,69.06
2017-07-17T02:18:41.054Z,67.14
2017-07-17T02:21:13.064Z,67.19
2017-07-17T02:23:45.096Z,66.61
2017-07-17T02:26:19.846Z,68.05
2017-07-17T02:28:51.554Z,67.64
2017-07-17T02:31:26.091Z,66.23
2017-07-17T02:33:57.566Z,66.20
2017-07-17T02:36:29.342Z,68.61
2017-07-17T02:39:11.519Z,67.13
2017-07-17T02:41:42.833Z,65.66
2017-07-17T02:44:14.779Z,64.84
2017-07-17T02:46:46.774Z,67.62
2017-07-17T02:49:20.087Z,68.58
2017-07-17T02:51:51.503Z,66.08
2017-07-17T02:54:24.890Z,65.47
2017-07-17T02:56:56.297Z,65.10
2017-07-17T02:59:27.792Z,66.47
2017-07-17T03:01:59.647Z,65.82
2017-07-17T03:04:31.122Z,66.16
2017-07-17T03:07:02.719Z,67.47
2017-07-17T03:09:34.052Z,68.27
2017-07-17T03:12:05.637Z,66.61
2017-07-17T03:14:36.853Z,66.85
2017-07-17T03:17:08.545Z,68.68
2017-07-17T03:19:39.836Z,65.95
2017-07-17T03:22:11.562Z,67.15
2017-07-17T03:24:43.502Z,68.59
2017-07-17T03:27:14.952Z,67.16
2017-07-17T03:29:46.226Z,65.12
2017-07-17T03:32:20.139Z,65.83
2017-07-17T03:34:52.422Z,64.29
2017-07-17T03:37:25.146Z,63.31
2017-07-17T03:39:56.545Z,64.15
2017-07-17T03:42:28.060Z,64.24
2017-07-17T03:44:59.627Z,63.02
2017-07-17T03:47:31.670Z,62.35
2017-07-17T03:50:03.702Z,62.54
2017-07-17T03:52:35.904Z,62.72
2017-07-17T03:55:07.766Z,62.35
2017-07-17T03:57:39.855Z,61.54
2017-07-17T04:00:11.844Z,61.50
2017-07-17T04:02:43.788Z,61.28
2017-07-17T04:05:15.109Z,61.30
2017-07-17T04:07:47.526Z,61.06
2017-07-17T04:10:20.996Z,60.86
2017-07-17T04:12:52.887Z,62.52
2017-07-17T04:15:25.262Z,62.07
2017-07-17T04:17:56.642Z,61.80
2017-07-17T04:20:28.390Z,60.79
2017-07-17T04:22:59.754Z,61.21
2017-07-17T04:25:31.416Z,61.24
2017-07-17T04:28:03.196Z,60.82
2017-07-17T04:30:34.501Z,60.82
2017-07-17T04:33:06.439Z,61.21
2017-07-17T04:35:37.884Z,60.77
2017-07-17T04:38:09.539Z,60.89
2017-07-17T04:40:41.988Z,60.11
2017-07-17T04:43:13.326Z,59.94
2017-07-17T04:45:44.710Z,59.96
2017-07-17T04:48:16.211Z,59.90
2017-07-17T04:50:47.922Z,59.82
2017-07-17T04:53:23.694Z,60.61
2017-07-17T04:55:56.337Z,60.64
2017-07-17T04:58:30.093Z,60.40
2017-07-17T05:01:01.689Z,59.68
2017-07-17T05:03:33.335Z,59.02
2017-07-17T05:06:04.617Z,58.11
2017-07-17T05:08:36.047Z,57.98
2017-07-17T05:11:07.781Z,57.30
2017-07-17T05:13:39.504Z,56.81
2017-07-17T05:16:11.523Z,56.65
2017-07-17T05:18:43.839Z,56.52
2017-07-17T05:21:15.563Z,56.65
2017-07-17T05:23:46.927Z,57.34
2017-07-17T05:26:21.926Z,57.26
2017-07-17T05:28:53.511Z,56.56
2017-07-17T05:31:46.844Z,56.44
2017-07-17T05:34:21.425Z,55.83
2017-07-17T05:36:53.872Z,55.90
2017-07-17T05:39:26.887Z,56.02
2017-07-17T05:41:58.176Z,55.61
2017-07-17T05:44:29.497Z,55.21
2017-07-17T05:47:01.325Z,54.78
2017-07-17T05:49:34.405Z,54.48
2017-07-17T05:52:06.262Z,54.76
2017-07-17T05:54:38.818Z,54.04
2017-07-17T05:57:10.384Z,53.85
2017-07-17T05:59:41.982Z,54.23
2017-07-17T06:02:14.290Z,53.72
2017-07-17T06:04:47.298Z,54.44
2017-07-17T06:07:22.388Z,56.05
2017-07-17T06:09:54.021Z,59.16
2017-07-17T06:12:25.769Z,61.38
2017-07-17T06:14:57.722Z,63.39
2017-07-17T06:17:28.961Z,62.37
2017-07-17T06:20:01.445Z,63.15
2017-07-17T06:22:34.588Z,65.12
2017-07-17T06:25:06.508Z,67.47
2017-07-17T06:27:38.144Z,68.22
2017-07-17T06:30:10.122Z,68.32
2017-07-17T06:32:41.837Z,68.13
2017-07-17T06:35:13.984Z,68.53
2017-07-17T06:37:45.373Z,68.34
2017-07-17T06:40:20.355Z,69.46
2017-07-17T06:42:51.959Z,70.95
2017-07-17T06:45:25.698Z,70.91
2017-07-17T06:47:57.238Z,71.24
2017-07-17T06:50:29.046Z,71.49
2017-07-17T06:53:00.375Z,69.06
2017-07-17T06:55:32.659Z,68.23
2017-07-17T06:58:02.444Z,67.03
2017-07-17T07:00:32.790Z,65.78
2017-07-17T07:03:03.662Z,65.18
2017-07-17T07:05:35.311Z,62.69
2017-07-17T07:08:07.019Z,60.55
2017-07-17T07:10:39.527Z,58.71
2017-07-17T07:13:12.775Z,55.84
2017-07-17T07:15:45.379Z,54.01
2017-07-17T07:18:22.108Z,53.61
2017-07-17T07:20:52.615Z,53.97
2017-07-17T07:23:26.268Z,52.35
2017-07-17T07:25:57.488Z,53.26
2017-07-17T07:28:27.540Z,51.57
2017-07-17T07:30:58.420Z,51.23
2017-07-17T07:33:29.327Z,50.88
2017-07-17T07:35:59.513Z,48.91
2017-07-17T07:38:29.879Z,49.23
2017-07-17T07:41:00.254Z,52.49
2017-07-17T07:43:30.904Z,50.80
2017-07-17T07:46:01.773Z,49.44
2017-07-17T07:48:32.215Z,49.75
2017-07-17T07:51:03.214Z,53.95
2017-07-17T07:53:35.645Z,49.43
2017-07-17T07:56:06.035Z,50.00
2017-07-17T07:58:36.676Z,50.45
2017-07-17T08:01:07.428Z,48.64
2017-07-17T08:03:37.886Z,48.58
2017-07-17T08:06:08.727Z,48.04
2017-07-17T08:08:38.586Z,51.86
2017-07-17T08:11:09.514Z,51.79
2017-07-17T08:13:39.814Z,50.78
2017-07-17T08:16:09.677Z,47.93
2017-07-17T08:18:39.705Z,49.80
2017-07-17T08:21:10.786Z,48.29
2017-07-17T08:23:41.733Z,47.89
2017-07-17T08:26:13.726Z,45.90
2017-07-17T08:28:43.678Z,47.64
2017-07-17T08:31:13.514Z,48.42
2017-07-17T08:33:43.943Z,50.59
2017-07-17T08:36:14.503Z,53.66
2017-07-17T08:38:45.107Z,52.13
2017-07-17T08:41:15.775Z,52.27
2017-07-17T08:43:45.753Z,50.71
2017-07-17T08:46:15.885Z,48.14
2017-07-17T08:48:45.721Z,47.06
2017-07-17T08:51:15.735Z,45.68
2017-07-17T08:53:45.839Z,49.15
2017-07-17T08:56:21.997Z,47.78
2017-07-17T08:58:52.317Z,49.35
2017-07-17T09:01:25.557Z,49.40
2017-07-17T09:03:55.271Z,49.33
2017-07-17T09:06:26.086Z,47.77
2017-07-17T09:08:56.352Z,44.24
2017-07-17T09:11:26.267Z,43.44
2017-07-17T09:13:57.883Z,37.69
2017-07-17T09:16:29.180Z,32.69
2017-07-17T09:19:01.071Z,33.70
2017-07-17T09:21:32.953Z,34.89
2017-07-17T09:24:04.872Z,35.17
2017-07-17T09:26:36.527Z,36.12
2017-07-17T09:29:07.620Z,37.62
2017-07-17T09:31:39.657Z,37.60
2017-07-17T09:34:11.164Z,38.11
2017-07-17T09:36:42.498Z,39.99
2017-07-17T09:39:14.125Z,39.57
2017-07-17T09:41:46.004Z,40.32
2017-07-17T09:44:19.483Z,40.15
2017-07-17T09:46:51.836Z,40.03
2017-07-17T09:49:25.216Z,41.34
2017-07-17T09:51:57.094Z,41.66
2017-07-17T09:54:28.441Z,43.02
2017-07-17T09:56:59.773Z,44.79
2017-07-17T09:59:31.931Z,54.43
2017-07-17T10:02:03.537Z,69.10
2017-07-17T10:04:34.854Z,68.42
2017-07-17T10:07:06.521Z,69.80
2017-07-17T10:09:38.169Z,70.36
2017-07-17T10:12:10.204Z,67.51
2017-07-17T10:14:42.378Z,66.99
2017-07-17T10:17:14.422Z,63.57
2017-07-17T10:19:46.218Z,63.90
2017-07-17T10:22:27.893Z,59.78
2017-07-17T10:25:01.679Z,58.09
2017-07-17T10:27:47.265Z,56.80
2017-07-17T10:30:22.060Z,57.45
2017-07-17T10:32:58.271Z,52.06
2017-07-17T10:35:35.314Z,51.41
2017-07-17T10:38:07.116Z,50.72
2017-07-17T10:40:38.734Z,46.04
2017-07-17T10:43:10.339Z,47.88
2017-07-17T10:45:55.608Z,48.62
2017-07-17T10:48:30.797Z,47.52
2017-07-17T10:51:02.531Z,45.89
2017-07-17T10:53:33.943Z,45.37
2017-07-17T10:56:05.829Z,48.54
2017-07-17T10:58:37.177Z,49.31
2017-07-17T11:01:09.132Z,48.83
2017-07-17T11:03:43.502Z,48.57
2017-07-17T11:06:15.167Z,48.71
2017-07-17T11:08:46.764Z,49.42
2017-07-17T11:11:19.838Z,48.77
2017-07-17T11:13:54.302Z,48.24
2017-07-17T11:16:26.100Z,47.40
2017-07-17T11:19:01.680Z,44.40
2017-07-17T11:21:33.147Z,41.12
2017-07-17T11:24:05.125Z,36.92
2017-07-17T11:26:37.094Z,36.65
2017-07-17T11:29:08.376Z,39.61
2017-07-17T11:31:39.971Z,40.28
2017-07-17T11:34:12.283Z,41.03
2017-07-17T11:36:43.449Z,46.06
2017-07-17T11:39:15.769Z,58.57
2017-07-17T11:41:47.333Z,71.63
2017-07-17T11:44:21.963Z,76.08
2017-07-17T11:57:19.777Z,72.74
2017-07-17T11:59:51.648Z,68.87
2017-07-17T12:02:24.985Z,66.91
2017-07-17T12:07:27.569Z,59.68
2017-07-17T12:09:58.810Z,56.07
2017-07-17T12:12:30.076Z,51.99
2017-07-17T12:15:02.477Z,51.24
2017-07-17T12:17:33.827Z,53.53
2017-07-17T12:20:06.099Z,52.01
2017-07-17T12:22:39.187Z,51.88
2017-07-17T12:25:10.834Z,49.83
2017-07-17T12:27:42.561Z,47.07
2017-07-17T12:30:14.004Z,46.58
2017-07-17T12:32:45.395Z,47.28
2017-07-17T12:35:17.015Z,48.84
2017-07-17T12:37:48.393Z,51.02
2017-07-17T12:40:24.372Z,48.09
2017-07-17T12:42:55.965Z,49.55
2017-07-17T12:45:27.446Z,49.94
2017-07-17T12:47:59.153Z,50.08
2017-07-17T12:50:32.283Z,48.67
2017-07-17T12:53:03.630Z,47.16
2017-07-17T12:55:35.502Z,47.56
2017-07-17T12:58:07.576Z,45.58
2017-07-17T13:00:39.034Z,45.40
2017-07-17T13:03:10.723Z,45.89
2017-07-17T13:05:42.460Z,51.78
2017-07-17T13:08:14.404Z,51.82
2017-07-17T13:10:46.065Z,52.71
2017-07-17T13:13:17.381Z,50.09
2017-07-17T13:15:49.317Z,47.98
2017-07-17T13:18:23.305Z,46.16
2017-07-17T13:20:54.736Z,41.91
2017-07-17T13:23:26.753Z,36.79
2017-07-17T13:25:58.299Z,35.04
2017-07-17T13:28:29.988Z,34.02
2017-07-17T13:31:01.727Z,37.64
2017-07-17T13:33:33.551Z,39.75
2017-07-17T13:36:05.333Z,40.27
2017-07-17T13:38:36.552Z,38.84
2017-07-17T13:41:08.278Z,41.14
2017-07-17T13:43:40.398Z,40.71
2017-07-17T13:46:11.772Z,37.83
2017-07-17T13:48:43.130Z,38.71
2017-07-17T13:51:14.507Z,39.79
2017-07-17T13:53:46.097Z,40.91
2017-07-17T13:56:20.760Z,37.73
2017-07-17T13:58:52.232Z,37.22
2017-07-17T14:01:27.908Z,37.34
2017-07-17T14:03:59.157Z,35.83
2017-07-17T14:06:30.488Z,36.49
2017-07-17T14:09:02.057Z,35.09
2017-07-17T14:11:33.358Z,35.27
2017-07-17T14:14:05.238Z,36.98
2017-07-17T14:16:36.751Z,38.57
2017-07-17T14:19:09.173Z,37.94
2017-07-17T14:21:40.724Z,38.10
2017-07-17T14:24:11.961Z,38.06
2017-07-17T14:26:43.429Z,37.48
2017-07-17T14:29:15.063Z,39.79
2017-07-17T14:31:46.509Z,42.31
2017-07-17T14:34:17.832Z,44.52
2017-07-17T14:36:50.217Z,44.33
2017-07-17T14:39:24.531Z,42.91
2017-07-17T14:41:56.324Z,42.32
2017-07-17T14:44:27.602Z,39.45
2017-07-17T14:46:59.100Z,38.03
2017-07-17T14:49:31.041Z,37.54
2017-07-17T14:52:02.440Z,35.65
2017-07-17T14:54:33.943Z,33.69
2017-07-17T14:57:06.147Z,32.05
2017-07-17T14:59:40.993Z,30.98
2017-07-17T15:02:13.615Z,31.88
2017-07-17T15:04:46.199Z,32.00
2017-07-17T15:07:21.072Z,33.95
2017-07-17T15:09:53.450Z,36.66
2017-07-17T15:12:26.130Z,38.91
2017-07-17T15:14:57.746Z,40.08
2017-07-17T15:17:29.240Z,40.76
2017-07-17T15:20:01.138Z,40.62
2017-07-17T15:22:32.695Z,41.96
2017-07-17T15:25:05.408Z,41.35
2017-07-17T15:27:37.144Z,41.45
2017-07-17T15:30:08.778Z,41.45
2017-07-17T15:32:41.071Z,43.09
2017-07-17T15:35:12.568Z,46.44
2017-07-17T15:37:44.615Z,46.89
2017-07-17T15:40:16.059Z,45.41
2017-07-17T15:42:47.401Z,44.07
2017-07-17T15:45:21.077Z,43.63
2017-07-17T15:47:54.237Z,47.51
2017-07-17T15:50:26.430Z,50.32
2017-07-17T15:52:57.801Z,52.20
2017-07-17T15:55:30.288Z,53.49
2017-07-17T15:58:02.392Z,54.13
2017-07-17T16:00:35.363Z,54.05
2017-07-17T16:03:07.263Z,54.19
2017-07-17T16:05:38.977Z,53.07
2017-07-17T16:08:10.478Z,52.87
2017-07-17T16:10:41.814Z,50.83
2017-07-17T16:13:13.455Z,50.23
2017-07-17T16:15:44.850Z,51.46
2017-07-17T16:18:16.537Z,49.42
2017-07-17T16:20:47.887Z,48.77
2017-07-17T16:23:22.113Z,48.48
2017-07-17T16:25:53.777Z,49.16
2017-07-17T16:28:26.391Z,48.64
2017-07-17T16:30:57.746Z,47.44
2017-07-17T16:33:29.953Z,49.26
2017-07-17T16:36:02.067Z,49.18
2017-07-17T16:38:34.031Z,49.44
2017-07-17T16:41:05.891Z,49.89
2017-07-17T16:43:37.460Z,51.71
2017-07-17T16:46:09.066Z,52.39
2017-07-17T16:48:40.544Z,54.31
2017-07-17T16:51:11.814Z,56.27
2017-07-17T16:53:44.322Z,56.82
2017-07-17T16:56:16.090Z,56.11
2017-07-17T16:58:47.808Z,56.71
2017-07-17T17:01:22.175Z,57.12
2017-07-17T17:03:55.475Z,58.41
2017-07-17T17:06:26.877Z,58.55
2017-07-17T17:08:58.471Z,58.37
2017-07-17T17:11:29.817Z,58.16
2017-07-17T17:14:01.483Z,56.68
2017-07-17T17:16:32.839Z,56.71
2017-07-17T17:19:09.718Z,57.28
2017-07-17T17:21:42.196Z,55.96
2017-07-17T17:24:14.348Z,56.54
2017-07-17T17:26:46.595Z,56.14
2017-07-17T17:29:20.904Z,56.76
2017-07-17T17:31:52.361Z,57.58
2017-07-17T17:34:28.078Z,57.73
2017-07-17T17:36:59.913Z,57.14
2017-07-17T17:39:33.277Z,58.27
2017-07-17T17:42:05.083Z,58.65
2017-07-17T17:44:36.569Z,58.57
2017-07-17T17:47:08.276Z,58.40
2017-07-17T17:49:40.014Z,59.17
2017-07-17T17:52:12.959Z,59.73
2017-07-17T17:54:45.777Z,59.35
2017-07-17T17:57:17.251Z,59.15
2017-07-17T17:59:49.437Z,60.68
2017-07-17T18:02:25.831Z,59.79
2017-07-17T18:05:00.375Z,60.56
2017-07-17T18:07:33.022Z,59.99
2017-07-17T18:10:06.388Z,58.76
2017-07-17T18:12:38.338Z,59.07
2017-07-17T18:15:11.984Z,61.19
2017-07-17T18:17:44.251Z,60.08
2017-07-17T18:20:17.361Z,58.84
2017-07-17T18:22:49.046Z,58.40
2017-07-17T18:25:22.943Z,59.08
2017-07-17T18:27:54.577Z,59.89
2017-07-17T18:30:27.410Z,59.46
2017-07-17T18:32:59.752Z,59.29
2017-07-17T18:35:31.166Z,59.76
2017-07-17T18:38:02.904Z,60.58
2017-07-17T18:40:35.005Z,60.26
2017-07-17T18:43:09.007Z,60.11
2017-07-17T18:45:41.720Z,59.60
2017-07-17T18:48:14.721Z,59.14
2017-07-17T18:50:47.949Z,58.96
2017-07-17T18:53:25.615Z,59.10
2017-07-17T18:55:57.781Z,59.34
2017-07-17T18:58:30.872Z,59.59
2017-07-17T19:01:05.635Z,57.40
2017-07-17T19:03:38.327Z,56.76
2017-07-17T19:06:21.183Z,58.93
2017-07-17T19:08:52.820Z,58.64
2017-07-17T19:11:27.838Z,58.87
2017-07-17T19:14:01.991Z,59.45
2017-07-17T19:16:34.878Z,58.52
2017-07-17T19:19:06.523Z,60.21
2017-07-17T19:21:38.787Z,58.82
2017-07-17T19:24:10.149Z,59.46
2017-07-17T19:26:43.942Z,60.43
2017-07-17T19:29:16.227Z,63.34
2017-07-17T19:31:48.443Z,62.71
2017-07-17T19:34:23.884Z,62.98
2017-07-17T19:36:56.536Z,62.55
2017-07-17T19:39:29.359Z,61.87
2017-07-17T19:42:01.187Z,63.13
2017-07-17T19:44:32.401Z,64.10
2017-07-17T19:47:04.692Z,64.12
2017-07-17T19:49:37.876Z,63.49
2017-07-17T19:52:09.138Z,62.89
2017-07-17T19:54:43.754Z,62.58
2017-07-17T19:57:17.130Z,62.15
2017-07-17T19:59:49.631Z,61.52
2017-07-17T20:02:24.859Z,61.97
2017-07-17T20:05:02.479Z,62.19
2017-07-17T20:07:35.375Z,63.38
2017-07-17T20:10:07.699Z,61.82
2017-07-17T20:12:39.882Z,62.87
2017-07-17T20:15:12.726Z,62.24
2017-07-17T20:17:44.042Z,61.43
2017-07-17T20:20:17.107Z,60.54
2017-07-17T20:22:49.139Z,61.11
2017-07-17T20:25:22.836Z,61.32
2017-07-17T20:27:54.254Z,60.46
2017-07-17T20:30:26.283Z,59.55
2017-07-17T20:32:57.709Z,58.47
2017-07-17T20:35:28.981Z,58.99
2017-07-17T20:38:00.172Z,58.68
2017-07-17T20:40:32.281Z,59.45
2017-07-17T20:43:05.348Z,60.55
2017-07-17T20:45:36.560Z,61.08
2017-07-17T20:48:07.991Z,61.44
2017-07-17T20:50:40.953Z,61.31
2017-07-17T20:53:12.317Z,61.17
2017-07-17T20:55:47.674Z,61.38
2017-07-17T20:58:22.492Z,62.44
2017-07-17T21:00:54.003Z,62.74
2017-07-17T21:03:27.555Z,62.85
2017-07-17T21:05:58.817Z,64.15
2017-07-17T21:08:30.168Z,62.94
2017-07-17T21:11:01.878Z,62.81
2017-07-17T21:13:33.164Z,62.50
2017-07-17T21:16:04.870Z,61.51
2017-07-17T21:18:36.380Z,60.45
2017-07-17T21:21:07.727Z,59.95
2017-07-17T21:23:39.768Z,60.17
2017-07-17T21:26:11.203Z,58.97
2017-07-17T21:28:42.678Z,58.75
2017-07-17T21:31:15.229Z,60.04
2017-07-17T21:33:47.316Z,60.17
2017-07-17T21:36:18.653Z,60.22
2017-07-17T21:38:50.280Z,59.66
2017-07-17T21:41:24.879Z,59.12
2017-07-17T21:43:56.507Z,59.24
2017-07-17T21:46:27.728Z,58.65
2017-07-17T21:48:59.025Z,59.09
2017-07-17T21:51:30.839Z,60.80
2017-07-17T21:54:03.204Z,62.18
2017-07-17T21:56:34.560Z,62.18
2017-07-17T21:59:06.428Z,62.72
2017-07-17T22:01:38.103Z,63.01
2017-07-17T22:04:10.305Z,63.43
2017-07-17T22:06:42.497Z,63.30
2017-07-17T22:09:13.959Z,62.93
2017-07-17T22:11:45.706Z,62.71
2017-07-17T22:14:20.668Z,62.12
2017-07-17T22:16:52.312Z,61.96
2017-07-17T22:19:26.445Z,62.03
2017-07-17T22:21:58.083Z,62.78
2017-07-17T22:24:29.564Z,64.59
2017-07-17T22:27:01.550Z,63.36
2017-07-17T22:29:33.055Z,62.28
2017-07-17T22:32:04.450Z,62.08
2017-07-17T22:34:36.419Z,61.67
2017-07-17T22:37:07.880Z,61.66
2017-07-17T22:39:39.266Z,64.38
2017-07-17T22:42:11.009Z,63.99
2017-07-17T22:44:42.628Z,62.27
2017-07-17T22:47:15.133Z,63.27
2017-07-17T22:49:46.652Z,63.60
2017-07-17T22:52:19.802Z,63.43
2017-07-17T22:54:52.337Z,64.53
2017-07-17T22:57:25.726Z,64.12
2017-07-17T22:59:57.700Z,63.86
2017-07-17T23:02:29.800Z,63.98
2017-07-17T23:05:01.325Z,64.23
2017-07-17T23:07:33.440Z,64.20
2017-07-17T23:10:05.343Z,63.55
2017-07-17T23:12:37.494Z,64.92
2017-07-17T23:15:09.384Z,65.46
2017-07-17T23:17:40.844Z,63.40
2017-07-17T23:20:12.643Z,62.53
2017-07-17T23:22:44.241Z,62.75
2017-07-17T23:25:15.547Z,61.63
2017-07-17T23:27:47.155Z,62.32
2017-07-17T23:30:20.611Z,62.55
2017-07-17T23:32:52.118Z,61.44
2017-07-17T23:35:26.736Z,63.20
2017-07-17T23:37:58.013Z,63.51
2017-07-17T23:40:29.629Z,61.92
2017-07-17T23:44:02.783Z,61.97
2017-07-17T23:46:34.146Z,62.82
2017-07-17T23:49:05.399Z,62.16
2017-07-17T23:51:36.884Z,62.00
2017-07-17T23:54:08.135Z,62.76
2017-07-17T23:56:40.191Z,63.03
2017-07-17T23:59:11.425Z,64.58
